createdAt,value
2022-09-15T00:01:15.480Z,9.87
2022-09-15T00:03:45.814Z,6.00
2022-09-15T00:06:16.036Z,8.80
2022-09-15T00:08:47.303Z,12.27
2022-09-15T00:11:22.380Z,11.37
2022-09-15T00:13:53.959Z,7.97
2022-09-15T00:16:28.934Z,8.70
2022-09-15T00:18:58.838Z,10.43
2022-09-15T00:21:32.656Z,7.63
2022-09-15T00:24:04.062Z,8.33
2022-09-15T00:26:34.516Z,8.67
2022-09-15T00:29:04.823Z,8.40
2022-09-15T00:31:37.314Z,8.70
2022-09-15T00:34:08.040Z,7.50
2022-09-15T00:36:38.046Z,13.40
2022-09-15T00:39:08.013Z,7.47
2022-09-15T00:41:37.880Z,5.47
2022-09-15T00:44:28.916Z,7.70
2022-09-15T00:47:18.679Z,6.43
2022-09-15T00:49:58.424Z,7.90
2022-09-15T00:52:35.125Z,8.90
2022-09-15T00:55:08.868Z,8.07
2022-09-15T00:57:42.831Z,10.33
2022-09-15T01:00:16.801Z,7.43
2022-09-15T01:02:50.929Z,7.03
2022-09-15T01:05:24.316Z,7.47
2022-09-15T01:07:57.832Z,10.60
2022-09-15T01:10:31.254Z,10.63
2022-09-15T01:13:05.137Z,10.87
2022-09-15T01:15:43.043Z,9.80
2022-09-15T01:18:23.385Z,10.20
2022-09-15T01:21:02.421Z,8.50
2022-09-15T01:24:07.280Z,10.27
2022-09-15T01:27:30.601Z,8.83
2022-09-15T01:30:12.946Z,8.50
2022-09-15T01:33:08.915Z,8.77
2022-09-15T01:35:59.060Z,10.33
2022-09-15T01:38:39.673Z,6.77
2022-09-15T01:41:17.784Z,8.40
2022-09-15T01:43:54.035Z,5.30
2022-09-15T01:46:29.086Z,7.40
2022-09-15T01:49:01.385Z,5.47
2022-09-15T01:51:34.114Z,6.87
2022-09-15T01:54:07.742Z,9.40
2022-09-15T01:56:41.991Z,7.37
2022-09-15T01:59:12.441Z,7.33
2022-09-15T02:01:52.253Z,10.97
2022-09-15T02:04:31.171Z,7.77
2022-09-15T02:07:06.594Z,10.97
2022-09-15T02:09:43.244Z,7.47
2022-09-15T02:12:20.031Z,10.27
2022-09-15T02:14:57.865Z,11.07
2022-09-15T02:17:32.816Z,11.00
2022-09-15T02:20:11.573Z,8.53
2022-09-15T02:22:44.080Z,6.37
2022-09-15T02:25:17.487Z,9.80
2022-09-15T02:27:50.325Z,6.57
2022-09-15T02:30:22.510Z,8.40
2022-09-15T02:32:58.985Z,8.47
2022-09-15T02:35:31.303Z,5.37
2022-09-15T02:38:02.890Z,7.60
2022-09-15T02:40:33.951Z,6.83
2022-09-15T02:43:05.964Z,7.40
2022-09-15T02:45:36.262Z,13.80
2022-09-15T02:48:09.523Z,10.87
2022-09-15T02:50:39.746Z,10.07
2022-09-15T02:53:10.557Z,8.03
2022-09-15T02:55:40.410Z,7.07
2022-09-15T02:58:10.905Z,7.20
2022-09-15T03:00:42.832Z,7.57
2022-09-15T03:03:15.809Z,8.37
2022-09-15T03:05:46.308Z,9.33
2022-09-15T03:08:16.820Z,7.30
2022-09-15T03:10:46.592Z,8.13
2022-09-15T03:13:16.454Z,9.20
2022-09-15T03:15:46.208Z,11.43
2022-09-15T03:18:21.631Z,5.93
2022-09-15T03:20:51.579Z,8.40
2022-09-15T03:23:21.638Z,7.67
2022-09-15T03:25:53.313Z,9.30
2022-09-15T03:28:23.117Z,8.53
2022-09-15T03:30:53.002Z,7.00
2022-09-15T03:33:26.152Z,12.23
2022-09-15T03:35:57.214Z,11.47
2022-09-15T03:38:27.160Z,12.23
2022-09-15T03:41:05.056Z,12.90
2022-09-15T03:43:35.422Z,12.77
2022-09-15T03:46:08.298Z,9.97
2022-09-15T03:48:44.020Z,9.97
2022-09-15T03:51:14.718Z,9.00
2022-09-15T03:53:46.177Z,14.97
2022-09-15T03:56:24.311Z,11.13
2022-09-15T03:58:55.384Z,10.53
2022-09-15T04:01:26.210Z,11.40
2022-09-15T04:03:59.694Z,13.33
2022-09-15T04:06:32.822Z,14.23
2022-09-15T04:09:03.108Z,9.37
2022-09-15T04:11:34.102Z,11.73
2022-09-15T04:14:04.076Z,10.63
2022-09-15T04:16:34.047Z,10.63
2022-09-15T04:19:07.558Z,10.30
2022-09-15T04:21:37.601Z,14.77
2022-09-15T04:24:08.274Z,13.03
2022-09-15T04:26:39.989Z,9.83
2022-09-15T04:29:17.683Z,14.37
2022-09-15T04:31:48.859Z,8.90
2022-09-15T04:34:21.560Z,9.13
2022-09-15T04:36:51.478Z,10.97
2022-09-15T04:39:21.285Z,12.57
2022-09-15T04:41:51.154Z,8.33
2022-09-15T04:44:23.965Z,9.10
2022-09-15T04:46:57.701Z,13.53
2022-09-15T04:49:31.901Z,11.13
2022-09-15T04:52:01.853Z,12.43
2022-09-15T04:54:31.858Z,13.07
2022-09-15T04:57:01.745Z,10.40
2022-09-15T04:59:31.879Z,7.80
2022-09-15T05:02:02.427Z,25.20
2022-09-15T05:04:35.045Z,11.07
2022-09-15T05:07:05.079Z,9.90
2022-09-15T05:09:34.831Z,8.87
2022-09-15T05:12:05.042Z,10.87
2022-09-15T05:14:35.668Z,7.87
2022-09-15T05:17:05.824Z,18.77
2022-09-15T05:19:38.675Z,12.17
2022-09-15T05:22:08.619Z,12.47
2022-09-15T05:24:41.327Z,9.57
2022-09-15T05:27:11.463Z,8.53
2022-09-15T05:29:41.227Z,13.33
2022-09-15T05:32:11.011Z,8.27
2022-09-15T05:34:43.829Z,15.27
2022-09-15T05:37:14.413Z,14.57
2022-09-15T05:39:44.314Z,37.00
2022-09-15T05:42:14.349Z,55.83
2022-09-15T05:44:44.185Z,59.73
2022-09-15T05:47:14.303Z,62.97
2022-09-15T05:49:46.903Z,57.03
2022-09-15T05:52:16.803Z,88.57
2022-09-15T05:54:46.980Z,66.53
2022-09-15T05:57:16.777Z,13.63
2022-09-15T05:59:46.598Z,11.93
2022-09-15T06:02:16.919Z,10.07
2022-09-15T06:04:49.395Z,11.30
2022-09-15T06:07:19.664Z,7.20
2022-09-15T06:09:49.919Z,6.88
2022-09-15T06:12:20.478Z,8.33
2022-09-15T06:14:51.190Z,6.63
2022-09-15T06:17:22.388Z,7.77
2022-09-15T06:19:55.273Z,5.30
2022-09-15T06:22:25.869Z,15.53
2022-09-15T06:24:55.781Z,13.43
2022-09-15T06:27:25.927Z,9.27
2022-09-15T06:29:55.829Z,10.63
2022-09-15T06:32:25.731Z,7.97
2022-09-15T06:34:58.317Z,11.10
2022-09-15T06:37:28.483Z,7.47
2022-09-15T06:39:58.650Z,8.20
2022-09-15T06:42:28.712Z,4.73
2022-09-15T06:44:58.984Z,4.13
2022-09-15T06:47:33.893Z,10.90
2022-09-15T06:50:07.073Z,6.17
2022-09-15T06:52:37.280Z,26.53
2022-09-15T06:55:08.237Z,5.33
2022-09-15T06:57:38.496Z,8.03
2022-09-15T07:00:10.336Z,13.83
2022-09-15T07:02:40.505Z,7.80
2022-09-15T07:05:14.259Z,6.17
2022-09-15T07:07:44.068Z,9.03
2022-09-15T07:10:14.098Z,9.43
2022-09-15T07:12:46.246Z,14.47
2022-09-15T07:15:16.269Z,8.03
2022-09-15T07:17:46.058Z,7.43
2022-09-15T07:20:19.154Z,6.28
2022-09-15T07:22:49.428Z,7.37
2022-09-15T07:25:19.611Z,8.30
2022-09-15T07:27:49.774Z,5.85
2022-09-15T07:30:19.850Z,8.23
2022-09-15T07:32:49.824Z,5.43
2022-09-15T07:35:22.609Z,6.77
2022-09-15T07:37:52.433Z,6.68
2022-09-15T07:40:22.367Z,6.15
2022-09-15T07:42:52.246Z,5.03
2022-09-15T07:45:22.345Z,6.15
2022-09-15T07:47:52.311Z,5.07
2022-09-15T07:50:25.228Z,6.47
2022-09-15T07:52:58.227Z,8.90
2022-09-15T07:55:30.440Z,7.70
2022-09-15T07:58:01.199Z,4.80
2022-09-15T08:00:31.864Z,5.15
2022-09-15T08:03:02.402Z,9.02
2022-09-15T08:05:39.453Z,4.97
2022-09-15T08:08:11.415Z,4.33
2022-09-15T08:10:42.717Z,3.77
2022-09-15T08:13:13.213Z,6.25
2022-09-15T08:15:46.306Z,7.87
2022-09-15T08:18:31.454Z,7.23
2022-09-15T08:21:07.378Z,5.30
2022-09-15T08:23:38.423Z,4.60
2022-09-15T08:26:13.626Z,6.82
2022-09-15T08:28:47.424Z,8.60
2022-09-15T08:31:18.602Z,7.95
2022-09-15T08:33:51.823Z,5.80
2022-09-15T08:36:28.194Z,6.85
2022-09-15T08:38:58.884Z,6.28
2022-09-15T08:41:32.607Z,8.23
2022-09-15T08:44:16.238Z,6.23
2022-09-15T08:46:53.887Z,5.10
2022-09-15T08:49:47.803Z,17.23
2022-09-15T08:52:26.014Z,9.32
2022-09-15T08:54:58.995Z,5.80
2022-09-15T08:57:29.285Z,6.85
2022-09-15T08:59:59.690Z,6.72
2022-09-15T09:02:49.451Z,5.30
2022-09-15T09:05:33.055Z,5.55
2022-09-15T09:08:33.989Z,7.07
2022-09-15T09:11:13.914Z,3.85
2022-09-15T09:13:50.162Z,6.35
2022-09-15T09:16:45.440Z,6.03
2022-09-15T09:19:33.774Z,3.53
2022-09-15T09:22:11.276Z,4.78
2022-09-15T09:24:47.124Z,7.75
2022-09-15T09:27:20.879Z,2.50
2022-09-15T09:29:53.127Z,4.85
2022-09-15T09:32:27.481Z,4.68
2022-09-15T09:35:03.936Z,14.80
2022-09-15T09:37:36.302Z,6.60
2022-09-15T09:40:10.525Z,2.47
2022-09-15T09:42:40.998Z,7.68
2022-09-15T09:45:16.247Z,7.57
2022-09-15T09:47:48.203Z,11.52
2022-09-15T09:50:35.042Z,9.93
2022-09-15T09:53:21.654Z,7.75
2022-09-15T09:55:55.643Z,12.82
2022-09-15T09:58:28.231Z,7.35
2022-09-15T10:01:13.122Z,12.27
2022-09-15T10:03:45.668Z,6.45
2022-09-15T10:06:18.674Z,8.07
2022-09-15T10:08:58.902Z,4.38
2022-09-15T10:11:48.598Z,4.03
2022-09-15T10:14:29.445Z,5.03
2022-09-15T10:17:04.890Z,3.40
2022-09-15T10:19:39.079Z,3.72
2022-09-15T10:22:09.019Z,2.78
2022-09-15T10:24:42.662Z,6.15
2022-09-15T10:27:28.784Z,5.07
2022-09-15T10:30:01.738Z,3.47
2022-09-15T10:32:33.305Z,3.45
2022-09-15T10:35:06.437Z,4.38
2022-09-15T10:37:46.818Z,4.53
2022-09-15T10:40:35.790Z,3.45
2022-09-15T10:43:27.535Z,3.10
2022-09-15T10:46:05.203Z,2.95
2022-09-15T10:49:04.599Z,5.80
2022-09-15T10:51:47.004Z,6.35
2022-09-15T10:54:51.221Z,3.55
2022-09-15T10:57:39.023Z,4.57
2022-09-15T11:00:15.218Z,5.53
2022-09-15T11:03:16.161Z,1.80
2022-09-15T11:05:56.320Z,2.83
2022-09-15T11:08:59.635Z,2.45
2022-09-15T11:11:43.355Z,5.70
2022-09-15T11:14:30.259Z,4.03
2022-09-15T11:17:17.862Z,4.32
2022-09-15T11:20:12.465Z,2.75
2022-09-15T11:22:51.059Z,5.10
2022-09-15T11:25:24.469Z,6.45
2022-09-15T11:27:58.400Z,8.38
2022-09-15T11:30:36.095Z,3.83
2022-09-15T11:33:15.090Z,4.07
2022-09-15T11:35:49.231Z,2.25
2022-09-15T11:38:37.230Z,3.45
2022-09-15T11:41:21.348Z,6.90
2022-09-15T11:44:06.220Z,6.05
2022-09-15T11:46:57.484Z,2.75
2022-09-15T11:49:34.659Z,4.22
2022-09-15T11:52:11.077Z,2.28
2022-09-15T11:54:48.077Z,4.45
2022-09-15T11:57:23.602Z,2.65
2022-09-15T12:00:00.554Z,2.92
2022-09-15T12:02:35.954Z,3.88
2022-09-15T12:05:15.163Z,3.65
2022-09-15T12:07:51.526Z,2.90
2022-09-15T12:10:26.351Z,3.85
2022-09-15T12:13:00.657Z,3.75
2022-09-15T12:15:31.331Z,6.80
2022-09-15T12:18:37.134Z,2.60
2022-09-15T12:21:18.910Z,4.45
2022-09-15T12:23:58.198Z,2.42
2022-09-15T12:26:30.109Z,3.88
2022-09-15T12:29:02.583Z,1.85
2022-09-15T12:31:40.484Z,2.22
2022-09-15T12:34:38.585Z,2.38
2022-09-15T12:37:16.736Z,4.18
2022-09-15T12:39:48.696Z,3.05
2022-09-15T12:42:23.646Z,4.13
2022-09-15T12:44:56.483Z,4.93
2022-09-15T12:47:41.139Z,2.72
2022-09-15T12:50:27.503Z,2.75
2022-09-15T12:53:02.745Z,2.58
2022-09-15T12:55:38.012Z,3.47
2022-09-15T12:58:12.612Z,5.47
2022-09-15T13:04:04.832Z,2.75
2022-09-15T13:06:36.236Z,2.22
2022-09-15T13:09:31.596Z,5.90
2022-09-15T13:12:02.809Z,2.90
2022-09-15T13:14:42.289Z,3.15
2022-09-15T13:17:22.808Z,5.65
2022-09-15T13:19:57.664Z,1.95
2022-09-15T13:22:33.499Z,4.47
2022-09-15T13:25:17.410Z,5.18
2022-09-15T13:27:50.496Z,4.30
2022-09-15T13:30:40.497Z,7.65
2022-09-15T13:35:03.184Z,3.58
2022-09-15T13:39:54.433Z,9.48
2022-09-15T13:42:51.934Z,5.13
2022-09-15T13:45:40.743Z,5.40
2022-09-15T13:48:31.266Z,3.55
2022-09-15T13:51:03.912Z,3.00
2022-09-15T13:53:46.221Z,4.28
2022-09-15T13:56:22.554Z,1.67
2022-09-15T13:58:59.907Z,4.53
2022-09-15T14:01:39.020Z,7.13
2022-09-15T14:04:14.869Z,8.55
2022-09-15T14:06:47.486Z,4.00
2022-09-15T14:09:21.318Z,4.53
2022-09-15T14:11:55.413Z,4.78
2022-09-15T14:14:40.068Z,6.70
2022-09-15T14:17:22.628Z,7.30
2022-09-15T14:19:54.534Z,8.60
2022-09-15T14:22:29.066Z,3.78
2022-09-15T14:25:00.193Z,2.65
2022-09-15T14:27:32.244Z,3.63
2022-09-15T14:30:07.913Z,3.50
2022-09-15T14:32:42.235Z,4.72
2022-09-15T14:35:20.121Z,13.98
2022-09-15T14:37:51.947Z,3.63
2022-09-15T14:40:27.325Z,3.53
2022-09-15T14:42:58.420Z,4.50
2022-09-15T14:48:31.087Z,2.30
2022-09-15T14:51:05.456Z,2.45
2022-09-15T14:53:39.398Z,4.85
2022-09-15T14:56:18.235Z,2.10
2022-09-15T14:58:53.264Z,2.42
2022-09-15T15:01:30.753Z,2.47
2022-09-15T15:04:10.322Z,3.70
2022-09-15T15:06:43.993Z,3.97
2022-09-15T15:09:25.617Z,2.42
2022-09-15T15:12:01.773Z,2.17
2022-09-15T15:14:31.903Z,2.28
2022-09-15T15:17:07.063Z,3.13
2022-09-15T15:19:39.687Z,5.38
2022-09-15T15:22:17.425Z,4.40
2022-09-15T15:24:50.213Z,4.70
2022-09-15T15:27:41.828Z,3.03
2022-09-15T15:30:37.068Z,2.17
2022-09-15T15:33:22.049Z,5.00
2022-09-15T15:36:04.871Z,45.60
2022-09-15T15:38:38.030Z,2.45
2022-09-15T15:41:10.858Z,3.40
2022-09-15T15:43:40.781Z,3.65
2022-09-15T15:46:12.649Z,4.07
2022-09-15T15:48:45.287Z,2.78
2022-09-15T15:51:15.144Z,3.13
2022-09-15T15:53:45.220Z,2.28
2022-09-15T15:56:16.082Z,5.85
2022-09-15T15:58:45.972Z,2.08
2022-09-15T16:01:15.928Z,4.63
2022-09-15T16:03:48.347Z,1.55
2022-09-15T16:06:18.338Z,4.05
2022-09-15T16:08:49.107Z,2.40
2022-09-15T16:11:20.983Z,3.90
2022-09-15T16:13:51.068Z,3.40
2022-09-15T16:16:22.771Z,2.03
2022-09-15T16:18:55.673Z,1.55
2022-09-15T16:21:32.472Z,3.10
2022-09-15T16:24:02.566Z,2.13
2022-09-15T16:26:34.604Z,2.72
2022-09-15T16:29:04.777Z,5.57
2022-09-15T16:31:36.410Z,1.92
2022-09-15T16:34:09.043Z,4.50
2022-09-15T16:36:39.066Z,3.53
2022-09-15T16:39:09.081Z,2.05
2022-09-15T16:41:40.386Z,1.35
2022-09-15T16:44:20.596Z,2.58
2022-09-15T16:46:50.554Z,4.68
2022-09-15T16:49:23.156Z,1.88
2022-09-15T16:51:53.078Z,2.47
2022-09-15T16:54:23.631Z,2.28
2022-09-15T16:56:54.135Z,1.70
2022-09-15T16:59:24.031Z,2.17
2022-09-15T17:01:54.163Z,2.85
2022-09-15T17:04:27.361Z,4.10
2022-09-15T17:06:57.235Z,3.42
2022-09-15T17:09:27.564Z,3.35
2022-09-15T17:11:58.514Z,1.40
2022-09-15T17:14:28.324Z,2.83
2022-09-15T17:16:58.393Z,1.42
2022-09-15T17:19:33.224Z,2.17
2022-09-15T17:22:04.884Z,1.20
2022-09-15T17:24:34.728Z,3.40
2022-09-15T17:27:04.786Z,5.15
2022-09-15T17:29:34.937Z,3.75
2022-09-15T17:32:05.821Z,2.20
2022-09-15T17:34:39.085Z,1.98
2022-09-15T17:37:09.446Z,1.73
2022-09-15T17:39:40.889Z,1.98
2022-09-15T17:42:12.468Z,2.95
2022-09-15T17:44:42.535Z,9.20
2022-09-15T17:47:15.725Z,3.72
2022-09-15T17:49:48.470Z,2.20
2022-09-15T17:52:18.561Z,2.15
2022-09-15T17:54:48.359Z,1.35
2022-09-15T17:57:18.168Z,3.78
2022-09-15T17:59:48.358Z,2.30
2022-09-15T18:02:21.464Z,3.78
2022-09-15T18:04:54.175Z,2.58
2022-09-15T18:07:25.405Z,3.38
2022-09-15T18:09:58.364Z,2.85
2022-09-15T18:12:28.497Z,2.17
2022-09-15T18:14:58.956Z,2.47
2022-09-15T18:17:28.949Z,2.20
2022-09-15T18:20:05.027Z,1.83
2022-09-15T18:22:35.156Z,1.30
2022-09-15T18:25:05.225Z,3.65
2022-09-15T18:27:36.103Z,2.70
2022-09-15T18:30:06.669Z,1.30
2022-09-15T18:32:39.566Z,1.63
2022-09-15T18:35:18.599Z,2.30
2022-09-15T18:37:49.598Z,1.58
2022-09-15T18:40:21.667Z,2.08
2022-09-15T18:42:51.525Z,1.75
2022-09-15T18:45:22.249Z,2.08
2022-09-15T18:47:56.527Z,5.97
2022-09-15T18:50:28.916Z,2.53
2022-09-15T18:53:02.335Z,1.50
2022-09-15T18:55:32.702Z,1.52
2022-09-15T18:58:02.835Z,1.95
2022-09-15T19:00:33.091Z,1.77
2022-09-15T19:03:27.205Z,2.20
2022-09-15T19:06:05.267Z,2.63
2022-09-15T19:08:40.332Z,5.53
2022-09-15T19:11:10.804Z,1.47
2022-09-15T19:13:42.953Z,3.37
2022-09-15T19:16:12.927Z,2.30
2022-09-15T19:18:44.954Z,1.20
2022-09-15T19:21:17.535Z,1.77
2022-09-15T19:23:49.987Z,6.03
2022-09-15T19:26:20.607Z,4.27
2022-09-15T19:28:55.865Z,1.97
2022-09-15T19:31:26.823Z,3.63
2022-09-15T19:33:57.130Z,2.17
2022-09-15T19:36:29.750Z,1.60
2022-09-15T19:39:02.825Z,2.63
2022-09-15T19:41:37.798Z,1.90
2022-09-15T19:44:10.655Z,2.58
2022-09-15T19:46:41.445Z,2.42
2022-09-15T19:49:11.675Z,5.57
2022-09-15T19:51:44.932Z,4.37
2022-09-15T19:54:15.775Z,3.67
2022-09-15T19:56:46.240Z,2.17
2022-09-15T19:59:16.085Z,3.07
2022-09-15T20:02:05.062Z,3.22
2022-09-15T20:04:34.829Z,4.30
2022-09-15T20:07:07.704Z,3.73
2022-09-15T20:09:40.750Z,2.78
2022-09-15T20:12:10.814Z,2.57
2022-09-15T20:14:40.769Z,4.17
2022-09-15T20:17:13.674Z,4.32
2022-09-15T20:19:43.741Z,1.63
2022-09-15T20:22:16.461Z,3.63
2022-09-15T20:24:46.375Z,4.65
2022-09-15T20:27:16.700Z,2.15
2022-09-15T20:29:46.558Z,3.33
2022-09-15T20:32:17.456Z,1.50
2022-09-15T20:34:47.258Z,2.17
2022-09-15T20:37:22.426Z,2.90
2022-09-15T20:39:52.496Z,4.32
2022-09-15T20:42:22.331Z,3.50
2022-09-15T20:44:54.593Z,1.90
2022-09-15T20:47:24.526Z,2.58
2022-09-15T20:49:54.947Z,3.95
2022-09-15T20:52:29.685Z,2.47
2022-09-15T20:54:59.602Z,6.95
2022-09-15T20:57:29.397Z,2.67
2022-09-15T20:59:59.268Z,1.92
2022-09-15T21:02:29.046Z,1.70
2022-09-15T21:04:59.074Z,1.50
2022-09-15T21:07:31.951Z,2.80
2022-09-15T21:10:01.987Z,2.37
2022-09-15T21:12:32.044Z,1.43
2022-09-15T21:15:05.712Z,2.55
2022-09-15T21:17:36.201Z,4.57
2022-09-15T21:20:08.896Z,2.20
2022-09-15T21:22:41.585Z,2.47
2022-09-15T21:25:11.759Z,2.92
2022-09-15T21:27:42.450Z,3.03
2022-09-15T21:30:14.798Z,3.47
2022-09-15T21:32:45.012Z,1.83
2022-09-15T21:35:15.331Z,2.37
2022-09-15T21:37:48.167Z,2.75
2022-09-15T21:40:18.576Z,5.57
2022-09-15T21:42:48.444Z,2.03
2022-09-15T21:45:18.435Z,4.20
2022-09-15T21:47:48.215Z,2.17
2022-09-15T21:50:19.049Z,4.30
2022-09-15T21:52:51.583Z,2.27
2022-09-15T21:55:21.599Z,2.07
2022-09-15T21:57:51.489Z,5.00
2022-09-15T22:00:21.334Z,2.10
2022-09-15T22:02:54.151Z,3.10
2022-09-15T22:05:23.971Z,2.80
2022-09-15T22:08:00.417Z,2.45
2022-09-15T22:10:32.999Z,3.57
2022-09-15T22:13:03.198Z,3.23
2022-09-15T22:15:33.547Z,3.37
2022-09-15T22:18:04.045Z,4.28
2022-09-15T22:20:34.131Z,3.97
2022-09-15T22:23:06.822Z,2.80
2022-09-15T22:25:36.779Z,2.80
2022-09-15T22:28:06.766Z,3.10
2022-09-15T22:30:37.077Z,3.23
2022-09-15T22:33:07.226Z,2.10
2022-09-15T22:35:37.271Z,3.33
2022-09-15T22:38:09.911Z,3.73
2022-09-15T22:40:39.848Z,3.13
2022-09-15T22:43:09.673Z,2.40
2022-09-15T22:45:39.483Z,2.93
2022-09-15T22:48:09.774Z,4.80
2022-09-15T22:50:39.720Z,3.27
2022-09-15T22:53:15.695Z,4.47
2022-09-15T22:55:45.485Z,4.30
2022-09-15T22:58:15.582Z,3.40
2022-09-15T23:00:45.914Z,3.63
2022-09-15T23:03:16.046Z,3.93
2022-09-15T23:05:45.938Z,2.00
2022-09-15T23:08:18.642Z,4.07
2022-09-15T23:10:49.104Z,5.27
2022-09-15T23:13:20.271Z,3.10
2022-09-15T23:15:51.945Z,1.90
2022-09-15T23:18:21.974Z,2.47
2022-09-15T23:20:57.868Z,5.07
2022-09-15T23:23:34.216Z,3.17
2022-09-15T23:28:49.306Z,3.13
2022-09-15T23:31:22.311Z,5.70
2022-09-15T23:33:52.460Z,4.20
2022-09-15T23:36:22.547Z,5.43
2022-09-15T23:38:55.134Z,2.90
2022-09-15T23:41:25.119Z,3.47
2022-09-15T23:43:55.977Z,5.33
2022-09-15T23:46:25.934Z,3.63
2022-09-15T23:48:55.862Z,4.23
2022-09-15T23:51:27.414Z,2.77
2022-09-15T23:54:02.186Z,3.33
2022-09-15T23:56:33.868Z,2.33
2022-09-15T23:59:03.941Z,2.40
